createdAt,value
2023-02-25T00:01:36.854Z,3.30
2023-02-25T00:04:03.991Z,3.80
2023-02-25T00:06:30.460Z,3.67
2023-02-25T00:08:57.213Z,3.73
2023-02-25T00:11:27.486Z,3.37
2023-02-25T00:13:56.818Z,3.33
2023-02-25T00:16:27.552Z,3.50
2023-02-25T00:18:58.175Z,3.03
2023-02-25T00:21:29.577Z,3.10
2023-02-25T00:24:00.117Z,2.73
2023-02-25T00:26:31.006Z,3.00
2023-02-25T00:28:57.770Z,3.13
2023-02-25T00:31:28.635Z,2.60
2023-02-25T00:33:55.820Z,2.93
2023-02-25T00:36:25.519Z,3.07
2023-02-25T00:39:01.204Z,2.30
2023-02-25T00:41:30.210Z,2.50
2023-02-25T00:44:02.233Z,3.23
2023-02-25T00:46:31.043Z,3.53
2023-02-25T00:48:58.964Z,2.40
2023-02-25T00:51:28.513Z,3.27
2023-02-25T00:53:56.847Z,2.97
2023-02-25T00:56:26.540Z,2.50
2023-02-25T00:58:56.481Z,2.77
2023-02-25T01:01:29.002Z,2.67
2023-02-25T01:04:00.153Z,3.13
2023-02-25T01:06:28.737Z,3.20
2023-02-25T01:08:56.613Z,2.73
2023-02-25T01:11:29.446Z,2.70
2023-02-25T01:14:00.944Z,2.93
2023-02-25T01:16:32.395Z,2.80
2023-02-25T01:19:01.709Z,2.50
2023-02-25T01:21:31.958Z,2.23
2023-02-25T01:24:05.300Z,2.00
2023-02-25T01:26:35.003Z,2.90
2023-02-25T01:29:01.872Z,2.83
2023-02-25T01:31:31.854Z,2.80
2023-02-25T01:34:03.659Z,2.53
2023-02-25T01:36:31.704Z,2.97
2023-02-25T01:39:02.441Z,2.53
2023-02-25T01:41:30.813Z,3.23
2023-02-25T01:44:08.365Z,2.63
2023-02-25T01:46:36.473Z,2.40
2023-02-25T01:49:07.412Z,2.03
2023-02-25T01:51:35.835Z,2.47
2023-02-25T01:54:04.420Z,2.67
2023-02-25T01:56:31.841Z,2.80
2023-02-25T01:59:02.273Z,2.87
2023-02-25T02:01:35.379Z,2.23
2023-02-25T02:04:04.484Z,2.17
2023-02-25T02:06:37.538Z,2.10
2023-02-25T02:09:07.233Z,2.23
2023-02-25T02:11:34.216Z,2.23
2023-02-25T02:14:06.143Z,2.50
2023-02-25T02:16:44.644Z,1.90
2023-02-25T02:19:36.212Z,1.80
2023-02-25T02:22:24.132Z,2.40
2023-02-25T02:25:17.745Z,2.17
2023-02-25T02:28:11.871Z,2.07
2023-02-25T02:31:17.532Z,2.03
2023-02-25T02:34:18.691Z,1.80
2023-02-25T02:36:51.535Z,1.93
2023-02-25T02:39:33.984Z,2.07
2023-02-25T02:42:21.712Z,1.80
2023-02-25T02:44:58.742Z,2.37
2023-02-25T02:47:32.181Z,2.93
2023-02-25T02:50:10.001Z,2.07
2023-02-25T02:52:51.632Z,2.07
2023-02-25T02:55:34.128Z,1.97
2023-02-25T02:58:06.912Z,2.03
2023-02-25T03:00:39.844Z,2.10
2023-02-25T03:03:14.617Z,2.33
2023-02-25T03:05:45.447Z,1.87
2023-02-25T03:08:17.336Z,2.00
2023-02-25T03:10:44.720Z,1.60
2023-02-25T03:13:12.019Z,1.70
2023-02-25T03:15:41.224Z,1.90
2023-02-25T03:18:30.953Z,1.40
2023-02-25T03:20:58.870Z,1.97
2023-02-25T03:23:32.781Z,1.60
2023-02-25T03:26:23.133Z,1.70
2023-02-25T03:28:50.296Z,1.50
2023-02-25T03:31:25.463Z,1.70
2023-02-25T03:33:56.659Z,1.93
2023-02-25T03:36:41.969Z,1.83
2023-02-25T03:39:20.567Z,1.53
2023-02-25T03:41:52.160Z,1.40
2023-02-25T03:44:24.947Z,1.70
2023-02-25T03:46:53.698Z,1.43
2023-02-25T03:49:26.294Z,1.70
2023-02-25T03:51:56.475Z,1.60
2023-02-25T03:54:23.005Z,1.80
2023-02-25T03:56:51.411Z,1.83
2023-02-25T03:59:19.187Z,2.10
2023-02-25T04:01:50.206Z,2.10
2023-02-25T04:04:16.793Z,2.17
2023-02-25T04:06:43.305Z,1.80
2023-02-25T04:09:09.822Z,1.80
2023-02-25T04:11:39.228Z,1.67
2023-02-25T04:14:07.315Z,2.10
2023-02-25T04:16:33.897Z,1.93
2023-02-25T04:19:00.382Z,2.10
2023-02-25T04:21:37.576Z,1.80
2023-02-25T04:24:09.223Z,1.90
2023-02-25T04:26:38.434Z,1.47
2023-02-25T04:29:05.003Z,1.60
2023-02-25T04:31:31.982Z,1.83
2023-02-25T04:33:58.559Z,1.70
2023-02-25T04:36:29.913Z,2.20
2023-02-25T04:38:57.820Z,1.83
2023-02-25T04:41:24.934Z,1.63
2023-02-25T04:43:51.378Z,2.87
2023-02-25T04:46:17.926Z,1.90
2023-02-25T04:48:44.460Z,2.10
2023-02-25T04:51:10.966Z,2.00
2023-02-25T04:53:38.443Z,2.53
2023-02-25T04:56:08.552Z,3.07
2023-02-25T04:58:36.404Z,3.00
2023-02-25T05:01:05.589Z,3.00
2023-02-25T05:03:33.558Z,2.97
2023-02-25T05:06:00.390Z,2.07
2023-02-25T05:08:27.627Z,1.80
2023-02-25T05:10:54.256Z,2.43
2023-02-25T05:13:21.311Z,2.30
2023-02-25T05:15:48.257Z,1.83
2023-02-25T05:18:14.917Z,2.37
2023-02-25T05:20:43.237Z,1.77
2023-02-25T05:23:13.579Z,2.87
2023-02-25T05:25:43.557Z,2.10
2023-02-25T05:28:13.153Z,1.93
2023-02-25T05:30:43.415Z,2.43
2023-02-25T05:33:14.212Z,1.87
2023-02-25T05:35:44.904Z,2.63
2023-02-25T05:38:14.464Z,1.90
2023-02-25T05:40:44.373Z,2.23
2023-02-25T05:43:13.791Z,2.30
2023-02-25T05:45:56.457Z,2.40
2023-02-25T05:48:23.723Z,2.50
2023-02-25T05:50:51.396Z,2.20
2023-02-25T05:53:20.539Z,2.13
2023-02-25T05:55:47.057Z,2.60
2023-02-25T05:58:13.564Z,2.43
2023-02-25T06:00:41.825Z,2.20
2023-02-25T06:03:08.343Z,2.40
2023-02-25T06:05:34.860Z,2.43
2023-02-25T06:08:01.368Z,2.63
2023-02-25T06:10:27.850Z,2.83
2023-02-25T06:12:54.367Z,2.20
2023-02-25T06:15:20.818Z,2.03
2023-02-25T06:17:47.298Z,2.20
2023-02-25T06:20:16.550Z,2.20
2023-02-25T06:22:43.565Z,2.20
2023-02-25T06:25:13.728Z,2.47
2023-02-25T06:27:45.491Z,2.07
2023-02-25T06:30:13.010Z,2.67
2023-02-25T06:32:43.637Z,2.47
2023-02-25T06:35:14.781Z,2.23
2023-02-25T06:37:44.524Z,2.03
2023-02-25T06:40:15.228Z,2.00
2023-02-25T06:42:42.084Z,2.37
2023-02-25T06:45:11.592Z,2.43
2023-02-25T06:47:38.120Z,2.50
2023-02-25T06:50:05.469Z,2.63
2023-02-25T06:52:32.041Z,2.20
2023-02-25T06:54:58.472Z,2.60
2023-02-25T06:57:25.147Z,2.20
2023-02-25T06:59:53.313Z,2.10
2023-02-25T07:02:20.186Z,2.63
2023-02-25T07:04:46.706Z,2.73
2023-02-25T07:07:13.194Z,2.30
2023-02-25T07:09:39.882Z,2.57
2023-02-25T07:12:07.570Z,2.33
2023-02-25T07:14:34.068Z,2.80
2023-02-25T07:17:00.635Z,2.80
2023-02-25T07:19:27.159Z,2.93
2023-02-25T07:21:55.213Z,2.67
2023-02-25T07:24:23.437Z,3.17
2023-02-25T07:26:50.033Z,4.13
2023-02-25T07:29:17.002Z,4.57
2023-02-25T07:31:45.723Z,5.03
2023-02-25T07:34:12.812Z,3.47
2023-02-25T07:36:43.653Z,3.20
2023-02-25T07:39:15.614Z,2.73
2023-02-25T07:41:42.655Z,3.20
2023-02-25T07:44:10.747Z,2.80
2023-02-25T07:46:37.697Z,3.17
2023-02-25T07:49:04.683Z,4.70
2023-02-25T07:51:31.151Z,4.43
2023-02-25T07:53:58.318Z,3.93
2023-02-25T07:56:28.562Z,3.37
2023-02-25T07:58:55.658Z,3.77
2023-02-25T08:01:26.375Z,3.00
2023-02-25T08:03:55.224Z,3.60
2023-02-25T08:06:22.081Z,4.10
2023-02-25T08:08:52.303Z,3.43
2023-02-25T08:11:20.660Z,3.37
2023-02-25T08:13:47.934Z,2.70
2023-02-25T08:16:17.039Z,3.00
2023-02-25T08:18:43.878Z,2.90
2023-02-25T08:21:12.872Z,2.87
2023-02-25T08:23:45.614Z,2.77
2023-02-25T08:26:12.464Z,2.40
2023-02-25T08:28:41.349Z,2.63
2023-02-25T08:31:14.597Z,3.07
2023-02-25T08:33:49.538Z,2.50
2023-02-25T08:36:20.577Z,2.17
2023-02-25T08:38:47.641Z,2.30
2023-02-25T08:41:14.572Z,2.57
2023-02-25T08:43:44.437Z,1.92
2023-02-25T08:46:14.076Z,1.77
2023-02-25T08:48:43.535Z,2.47
2023-02-25T08:51:15.146Z,2.00
2023-02-25T08:53:44.759Z,2.13
2023-02-25T08:56:16.368Z,2.17
2023-02-25T08:58:43.861Z,1.97
2023-02-25T09:01:14.385Z,2.42
2023-02-25T09:04:18.944Z,2.03
2023-02-25T09:06:49.039Z,2.27
2023-02-25T09:09:17.096Z,3.00
2023-02-25T09:11:44.986Z,2.50
2023-02-25T09:14:15.604Z,2.20
2023-02-25T09:16:42.203Z,2.37
2023-02-25T09:19:10.865Z,2.80
2023-02-25T09:21:37.489Z,2.73
2023-02-25T09:24:04.399Z,2.80
2023-02-25T09:26:30.914Z,3.23
2023-02-25T09:29:01.138Z,3.27
2023-02-25T09:31:28.085Z,2.93
2023-02-25T09:33:54.811Z,2.90
2023-02-25T09:36:22.417Z,4.17
2023-02-25T09:38:50.597Z,3.10
2023-02-25T09:41:29.311Z,3.10
2023-02-25T09:44:03.560Z,3.20
2023-02-25T09:46:46.392Z,3.20
2023-02-25T09:49:20.198Z,3.88
2023-02-25T09:51:52.905Z,3.47
2023-02-25T09:54:51.746Z,3.53
2023-02-25T09:57:22.480Z,2.75
2023-02-25T09:59:53.652Z,3.45
2023-02-25T10:02:44.222Z,3.55
2023-02-25T10:05:39.174Z,3.10
2023-02-25T10:08:20.906Z,3.60
2023-02-25T10:10:59.424Z,2.72
2023-02-25T10:13:54.784Z,3.00
2023-02-25T10:16:49.105Z,3.10
2023-02-25T10:19:30.744Z,2.78
2023-02-25T10:22:17.362Z,5.72
2023-02-25T10:24:48.589Z,3.08
2023-02-25T10:27:24.500Z,3.47
2023-02-25T10:29:56.963Z,3.67
2023-02-25T10:32:27.151Z,3.75
2023-02-25T10:34:57.987Z,3.70
2023-02-25T10:37:36.019Z,3.83
2023-02-25T10:40:11.293Z,4.35
2023-02-25T10:42:38.446Z,3.78
2023-02-25T10:45:14.490Z,3.70
2023-02-25T10:47:49.372Z,4.72
2023-02-25T10:50:27.734Z,3.88
2023-02-25T10:53:05.197Z,3.33
2023-02-25T10:55:43.785Z,3.50
2023-02-25T10:58:34.888Z,4.13
2023-02-25T11:01:12.571Z,3.55
2023-02-25T11:03:48.198Z,3.88
2023-02-25T11:06:24.837Z,3.70
2023-02-25T11:08:54.699Z,4.80
2023-02-25T11:11:24.750Z,4.57
2023-02-25T11:14:07.002Z,4.35
2023-02-25T11:16:36.473Z,4.97
2023-02-25T11:19:31.654Z,5.78
2023-02-25T11:22:06.153Z,5.28
2023-02-25T11:24:36.158Z,5.63
2023-02-25T11:27:04.614Z,4.60
2023-02-25T11:29:42.628Z,5.32
2023-02-25T11:32:16.619Z,4.78
2023-02-25T11:34:53.743Z,5.60
2023-02-25T11:37:45.308Z,6.63
2023-02-25T11:40:44.169Z,5.28
2023-02-25T11:43:34.115Z,5.45
2023-02-25T11:46:08.955Z,6.10
2023-02-25T11:48:49.942Z,5.18
2023-02-25T11:51:22.429Z,6.03
2023-02-25T11:54:21.371Z,6.03
2023-02-25T11:57:26.006Z,4.63
2023-02-25T12:00:48.348Z,5.15
2023-02-25T12:03:39.102Z,5.38
2023-02-25T12:06:24.087Z,6.22
2023-02-25T12:09:17.801Z,4.95
2023-02-25T12:12:06.333Z,5.25
2023-02-25T12:15:00.897Z,5.35
2023-02-25T12:18:01.976Z,5.00
2023-02-25T12:21:07.256Z,5.70
2023-02-25T12:23:49.868Z,5.45
2023-02-25T12:26:43.990Z,5.63
2023-02-25T12:29:23.159Z,6.18
2023-02-25T12:32:24.845Z,4.95
2023-02-25T12:35:12.696Z,5.53
2023-02-25T12:38:00.586Z,5.72
2023-02-25T12:40:49.012Z,5.88
2023-02-25T12:43:40.740Z,4.97
2023-02-25T12:46:16.519Z,6.00
2023-02-25T12:49:34.178Z,5.07
2023-02-25T12:52:23.972Z,5.97
2023-02-25T12:55:02.316Z,6.40
2023-02-25T12:57:50.183Z,5.75
2023-02-25T13:00:28.898Z,5.65
2023-02-25T13:03:33.195Z,5.78
2023-02-25T13:06:33.595Z,6.00
2023-02-25T13:09:26.616Z,6.15
2023-02-25T13:12:11.559Z,6.03
2023-02-25T13:15:07.482Z,7.57
2023-02-25T13:17:51.243Z,6.38
2023-02-25T13:20:35.401Z,6.60
2023-02-25T13:23:31.032Z,6.53
2023-02-25T13:26:09.530Z,7.03
2023-02-25T13:28:35.955Z,7.20
2023-02-25T13:31:16.610Z,6.22
2023-02-25T13:34:03.558Z,7.05
2023-02-25T13:36:52.801Z,7.90
2023-02-25T13:39:47.721Z,6.72
2023-02-25T13:42:51.941Z,6.20
2023-02-25T13:45:38.578Z,8.20
2023-02-25T13:48:44.284Z,7.90
2023-02-25T13:51:16.002Z,7.85
2023-02-25T13:54:23.171Z,8.48
2023-02-25T13:57:11.638Z,8.35
2023-02-25T13:59:47.230Z,7.82
2023-02-25T14:02:18.206Z,8.85
2023-02-25T14:04:53.198Z,7.95
2023-02-25T14:07:32.218Z,9.23
2023-02-25T14:10:18.459Z,8.45
2023-02-25T14:13:21.960Z,8.25
2023-02-25T14:16:22.853Z,7.78
2023-02-25T14:19:10.228Z,8.60
2023-02-25T14:21:58.234Z,7.47
2023-02-25T14:25:02.836Z,8.35
2023-02-25T14:28:07.195Z,8.27
2023-02-25T14:30:54.814Z,8.25
2023-02-25T14:33:52.320Z,8.60
2023-02-25T14:36:41.738Z,8.50
2023-02-25T14:39:21.667Z,9.15
2023-02-25T14:42:11.532Z,8.68
2023-02-25T14:44:41.199Z,8.07
2023-02-25T14:47:18.067Z,9.32
2023-02-25T14:50:07.120Z,8.45
2023-02-25T14:52:59.465Z,8.55
2023-02-25T14:55:55.765Z,8.25
2023-02-25T14:58:28.113Z,8.75
2023-02-25T15:01:12.944Z,9.32
2023-02-25T15:03:48.437Z,8.32
2023-02-25T15:06:30.077Z,9.20
2023-02-25T15:09:22.553Z,8.95
2023-02-25T15:12:20.385Z,7.67
2023-02-25T15:15:09.901Z,7.47
2023-02-25T15:17:58.287Z,8.20
2023-02-25T15:20:39.214Z,8.13
2023-02-25T15:23:13.685Z,7.57
2023-02-25T15:25:50.335Z,7.60
2023-02-25T15:28:31.618Z,7.70
2023-02-25T15:31:01.045Z,8.70
2023-02-25T15:33:33.982Z,7.43
2023-02-25T15:36:18.961Z,8.07
2023-02-25T15:38:52.252Z,7.47
2023-02-25T15:41:27.758Z,7.10
2023-02-25T15:43:59.160Z,6.23
2023-02-25T15:46:35.077Z,6.73
2023-02-25T15:49:07.811Z,5.47
2023-02-25T15:51:52.748Z,6.13
2023-02-25T15:54:31.174Z,5.13
2023-02-25T15:57:00.046Z,4.37
2023-02-25T16:00:01.049Z,4.83
2023-02-25T16:02:30.388Z,4.40
2023-02-25T16:05:19.409Z,3.90
2023-02-25T16:07:49.900Z,4.10
2023-02-25T16:10:22.569Z,4.50
2023-02-25T16:12:52.797Z,3.80
2023-02-25T16:15:25.608Z,4.23
2023-02-25T16:17:56.142Z,4.13
2023-02-25T16:20:48.529Z,3.53
2023-02-25T16:23:19.481Z,3.33
2023-02-25T16:26:18.676Z,3.20
2023-02-25T16:29:02.790Z,3.80
2023-02-25T16:31:44.064Z,3.90
2023-02-25T16:34:22.486Z,3.17
2023-02-25T16:37:21.696Z,3.20
2023-02-25T16:39:51.921Z,4.10
2023-02-25T16:42:21.290Z,4.17
2023-02-25T16:44:58.828Z,3.57
2023-02-25T16:47:29.369Z,2.63
2023-02-25T16:49:58.235Z,2.73
2023-02-25T16:52:36.134Z,3.77
2023-02-25T16:55:10.340Z,3.47
2023-02-25T16:57:38.648Z,3.97
2023-02-25T17:00:24.220Z,3.53
2023-02-25T17:03:00.515Z,3.03
2023-02-25T17:05:34.020Z,3.13
2023-02-25T17:08:02.587Z,3.73
2023-02-25T17:10:33.485Z,3.07
2023-02-25T17:13:02.840Z,3.17
2023-02-25T17:15:32.495Z,3.23
2023-02-25T17:18:12.371Z,3.57
2023-02-25T17:20:40.008Z,2.40
2023-02-25T17:23:10.322Z,2.50
2023-02-25T17:25:41.415Z,3.10
2023-02-25T17:28:16.025Z,2.80
2023-02-25T17:30:48.400Z,2.90
2023-02-25T17:33:26.587Z,3.53
2023-02-25T17:36:03.149Z,3.27
2023-02-25T17:38:30.111Z,2.40
2023-02-25T17:40:57.059Z,2.73
2023-02-25T17:43:33.006Z,2.60
2023-02-25T17:46:03.086Z,2.63
2023-02-25T17:48:32.502Z,2.70
2023-02-25T17:51:08.412Z,3.30
2023-02-25T17:53:47.075Z,4.00
2023-02-25T17:56:23.342Z,3.37
2023-02-25T17:58:54.157Z,4.23
2023-02-25T18:01:32.022Z,3.70
2023-02-25T18:04:05.209Z,3.43
2023-02-25T18:06:41.102Z,2.80
2023-02-25T18:09:28.669Z,3.13
2023-02-25T18:12:14.696Z,3.00
2023-02-25T18:14:45.880Z,4.33
2023-02-25T18:17:28.529Z,3.03
2023-02-25T18:20:01.114Z,3.10
2023-02-25T18:22:39.161Z,3.40
2023-02-25T18:25:27.880Z,2.90
2023-02-25T18:27:58.342Z,2.83
2023-02-25T18:30:56.138Z,3.53
2023-02-25T18:33:34.627Z,2.60
2023-02-25T18:36:01.818Z,2.87
2023-02-25T18:38:30.935Z,3.07
2023-02-25T18:40:58.269Z,2.27
2023-02-25T18:46:41.993Z,2.43
2023-02-25T18:49:08.833Z,3.60
2023-02-25T18:51:35.920Z,2.90
2023-02-25T18:54:02.757Z,2.97
2023-02-25T18:56:29.673Z,2.67
2023-02-25T18:58:57.629Z,2.23
2023-02-25T19:01:28.700Z,2.40
2023-02-25T19:04:01.552Z,2.47
2023-02-25T19:06:29.247Z,3.57
2023-02-25T19:08:56.813Z,3.23
2023-02-25T19:11:30.878Z,2.83
2023-02-25T19:13:57.838Z,2.97
2023-02-25T19:18:22.860Z,5.17
2023-02-25T19:20:32.565Z,4.57
2023-02-25T19:27:10.071Z,2.50
2023-02-25T19:29:36.578Z,3.23
2023-02-25T19:32:03.175Z,2.70
2023-02-25T19:34:29.782Z,3.83
2023-02-25T19:36:59.887Z,3.73
2023-02-25T19:39:29.283Z,2.40
2023-02-25T19:42:00.356Z,2.40
2023-02-25T19:44:47.920Z,2.87
2023-02-25T19:47:15.873Z,2.37
2023-02-25T19:49:42.651Z,2.30
2023-02-25T19:52:09.158Z,1.77
2023-02-25T19:54:35.627Z,2.30
2023-02-25T19:57:02.068Z,2.47
2023-02-25T19:59:31.299Z,2.93
2023-02-25T20:02:01.585Z,1.60
2023-02-25T20:04:31.489Z,1.90
2023-02-25T20:07:00.830Z,2.23
2023-02-25T20:09:30.636Z,2.30
2023-02-25T20:11:59.773Z,1.90
2023-02-25T20:14:31.282Z,2.20
2023-02-25T20:17:00.809Z,1.80
2023-02-25T20:19:32.892Z,1.73
2023-02-25T20:25:24.220Z,1.83
2023-02-25T20:27:50.752Z,2.40
2023-02-25T20:30:18.026Z,2.50
2023-02-25T20:32:45.313Z,1.80
2023-02-25T20:35:18.364Z,2.37
2023-02-25T20:38:00.217Z,2.40
2023-02-25T20:40:28.154Z,1.47
2023-02-25T20:42:54.859Z,2.17
2023-02-25T20:45:21.641Z,2.03
2023-02-25T20:47:48.293Z,2.37
2023-02-25T20:50:15.874Z,2.17
2023-02-25T20:52:42.468Z,2.30
2023-02-25T20:55:09.528Z,2.13
2023-02-25T20:57:36.055Z,1.80
2023-02-25T21:00:02.623Z,2.10
2023-02-25T21:02:29.666Z,1.97
2023-02-25T21:04:58.589Z,2.00
2023-02-25T21:07:25.072Z,1.73
2023-02-25T21:09:51.544Z,2.60
2023-02-25T21:12:18.052Z,1.70
2023-02-25T21:14:44.484Z,1.87
2023-02-25T21:17:13.536Z,1.57
2023-02-25T21:19:40.536Z,2.00
2023-02-25T21:22:08.002Z,1.90
2023-02-25T21:24:36.178Z,1.67
2023-02-25T21:27:11.569Z,2.43
2023-02-25T21:29:38.626Z,2.13
2023-02-25T21:32:05.434Z,1.60
2023-02-25T21:34:31.996Z,1.80
2023-02-25T21:37:01.328Z,2.03
2023-02-25T21:39:29.950Z,1.80
2023-02-25T21:41:56.621Z,2.43
2023-02-25T21:44:23.157Z,1.80
2023-02-25T21:46:49.679Z,1.57
2023-02-25T21:49:16.203Z,2.13
2023-02-25T21:51:42.796Z,2.80
2023-02-25T21:54:09.669Z,2.27
2023-02-25T21:56:36.263Z,1.57
2023-02-25T21:59:05.719Z,1.50
2023-02-25T22:01:43.921Z,1.63
2023-02-25T22:04:11.408Z,2.00
2023-02-25T22:06:38.468Z,1.90
2023-02-25T22:09:06.795Z,1.70
2023-02-25T22:11:36.074Z,1.90
2023-02-25T22:14:05.700Z,1.90
2023-02-25T22:16:32.581Z,1.40
2023-02-25T22:19:03.307Z,1.57
2023-02-25T22:21:35.463Z,1.47
2023-02-25T22:24:06.147Z,1.40
2023-02-25T22:26:34.875Z,1.37
2023-02-25T22:29:09.216Z,1.93
2023-02-25T22:31:36.551Z,1.70
2023-02-25T22:34:04.098Z,1.53
2023-02-25T22:36:31.485Z,1.63
2023-02-25T22:38:57.972Z,1.80
2023-02-25T22:41:29.528Z,1.37
2023-02-25T22:43:58.467Z,1.60
2023-02-25T22:46:29.205Z,2.27
2023-02-25T22:48:56.199Z,1.37
2023-02-25T22:51:28.818Z,1.90
2023-02-25T22:53:56.395Z,2.03
2023-02-25T22:56:23.570Z,1.87
2023-02-25T22:58:50.678Z,2.00
2023-02-25T23:01:19.402Z,2.63
2023-02-25T23:03:47.045Z,2.00
2023-02-25T23:06:15.671Z,1.90
2023-02-25T23:08:42.675Z,1.80
2023-02-25T23:11:16.418Z,2.13
2023-02-25T23:13:48.177Z,1.70
2023-02-25T23:16:34.252Z,1.83
2023-02-25T23:19:05.783Z,1.57
2023-02-25T23:21:38.653Z,1.60
2023-02-25T23:24:07.505Z,1.73
2023-02-25T23:26:38.696Z,1.67
2023-02-25T23:29:10.237Z,2.27
2023-02-25T23:31:42.356Z,2.03
2023-02-25T23:34:12.286Z,1.97
2023-02-25T23:36:40.887Z,1.83
2023-02-25T23:39:09.014Z,2.17
2023-02-25T23:41:40.036Z,1.70
2023-02-25T23:44:11.614Z,1.57
2023-02-25T23:46:38.210Z,1.93
2023-02-25T23:49:08.880Z,1.57
2023-02-25T23:51:37.606Z,2.87
2023-02-25T23:54:09.489Z,1.50
2023-02-25T23:56:39.216Z,2.30
2023-02-25T23:59:07.903Z,1.87
